createdAt,value
2022-09-07T00:04:55.454Z,100545.19
2022-09-07T00:09:58.929Z,100551.41
2022-09-07T00:15:04.367Z,100548.52
2022-09-07T00:20:17.436Z,100551.29
2022-09-07T00:25:34.383Z,100543.55
2022-09-07T00:30:42.396Z,100542.92
2022-09-07T00:35:49.251Z,100538.75
2022-09-07T00:40:53.686Z,100534.42
2022-09-07T00:45:57.137Z,100530.14
2022-09-07T00:51:05.042Z,100532.46
2022-09-07T00:56:18.171Z,100528.80
2022-09-07T01:01:24.579Z,100530.62
2022-09-07T01:06:36.744Z,100527.29
2022-09-07T01:11:44.074Z,100526.73
2022-09-07T01:17:09.300Z,100527.44
2022-09-07T01:22:25.255Z,100518.27
2022-09-07T01:27:46.950Z,100514.73
2022-09-07T01:32:53.210Z,100519.16
2022-09-07T01:38:04.692Z,100510.04
2022-09-07T01:43:17.808Z,100513.72
2022-09-07T01:48:24.284Z,100515.23
2022-09-07T01:53:37.260Z,100513.69
2022-09-07T01:58:51.025Z,100509.91
2022-09-07T02:04:03.601Z,100499.91
2022-09-07T02:09:27.949Z,100498.02
2022-09-07T02:14:34.665Z,100493.92
2022-09-07T02:19:44.609Z,100494.71
2022-09-07T02:24:51.945Z,100500.12
2022-09-07T02:29:55.338Z,100498.98
2022-09-07T02:34:58.794Z,100499.20
2022-09-07T02:40:02.471Z,100500.30
2022-09-07T02:45:09.396Z,100497.02
2022-09-07T02:50:50.652Z,100487.05
2022-09-07T02:56:06.536Z,100485.70
2022-09-07T03:01:35.122Z,100488.70
2022-09-07T03:06:49.625Z,100486.44
2022-09-07T03:11:53.241Z,100481.65
2022-09-07T03:16:57.524Z,100481.15
2022-09-07T03:22:00.747Z,100481.05
2022-09-07T03:27:04.185Z,100482.39
2022-09-07T03:32:07.428Z,100485.35
2022-09-07T03:37:13.191Z,100485.54
2022-09-07T03:42:17.050Z,100485.08
2022-09-07T03:47:20.396Z,100484.26
2022-09-07T03:52:24.030Z,100478.86
2022-09-07T03:57:27.849Z,100476.77
2022-09-07T04:02:31.087Z,100469.02
2022-09-07T04:07:34.330Z,100467.95
2022-09-07T04:12:37.630Z,100465.73
2022-09-07T04:17:40.944Z,100461.29
2022-09-07T04:22:44.309Z,100461.82
2022-09-07T04:27:47.744Z,100459.82
2022-09-07T04:32:52.479Z,100461.50
2022-09-07T04:37:56.778Z,100464.13
2022-09-07T04:43:00.519Z,100463.25
2022-09-07T04:48:04.573Z,100459.73
2022-09-07T04:53:08.065Z,100459.24
2022-09-07T04:58:14.323Z,100454.23
2022-09-07T05:03:17.609Z,100460.52
2022-09-07T05:08:21.436Z,100466.27
2022-09-07T05:13:25.853Z,100465.51
2022-09-07T05:18:30.196Z,100458.27
2022-09-07T05:23:33.948Z,100449.45
2022-09-07T05:28:38.013Z,100449.38
2022-09-07T05:39:22.535Z,100463.64
2022-09-07T05:49:53.003Z,100461.09
2022-09-07T05:55:19.622Z,100463.58
2022-09-07T06:00:40.082Z,100469.43
2022-09-07T06:05:45.635Z,100465.33
2022-09-07T06:11:14.666Z,100455.84
2022-09-07T06:16:22.205Z,100455.75
2022-09-07T06:21:25.622Z,100464.72
2022-09-07T06:26:28.877Z,100477.66
2022-09-07T06:31:32.444Z,100482.52
2022-09-07T06:36:35.965Z,100479.20
2022-09-07T06:47:12.454Z,100471.89
2022-09-07T06:52:15.814Z,100473.33
2022-09-07T06:57:19.214Z,100471.14
2022-09-07T07:02:22.636Z,100467.65
2022-09-07T07:07:25.846Z,100461.34
2022-09-07T07:17:33.991Z,100454.96
2022-09-07T07:22:52.509Z,100452.45
2022-09-07T07:27:56.010Z,100452.98
2022-09-07T07:32:59.599Z,100449.97
2022-09-07T07:43:26.805Z,100437.81
2022-09-07T07:48:31.828Z,100438.36
2022-09-07T07:53:41.635Z,100444.94
2022-09-07T07:58:47.318Z,100445.39
2022-09-07T08:03:51.199Z,100449.89
2022-09-07T08:08:56.237Z,100452.45
2022-09-07T08:14:01.725Z,100447.77
2022-09-07T08:19:06.118Z,100440.83
2022-09-07T08:24:09.570Z,100442.88
2022-09-07T08:29:12.744Z,100440.76
2022-09-07T08:34:15.986Z,100443.86
2022-09-07T08:39:19.285Z,100444.08
2022-09-07T08:44:38.963Z,100448.21
2022-09-07T08:49:53.639Z,100438.41
2022-09-07T08:55:21.300Z,100424.57
2022-09-07T09:00:24.604Z,100409.27
2022-09-07T09:05:36.358Z,100402.84
2022-09-07T09:11:11.813Z,100399.30
2022-09-07T09:16:25.050Z,100399.33
2022-09-07T09:21:28.427Z,100396.38
2022-09-07T09:26:33.030Z,100392.61
2022-09-07T09:31:36.397Z,100391.46
2022-09-07T09:36:45.862Z,100392.21
2022-09-07T09:41:50.059Z,100388.38
2022-09-07T09:52:29.872Z,100367.80
2022-09-07T10:08:59.822Z,100348.58
2022-09-07T10:14:04.750Z,100359.21
2022-09-07T10:19:40.813Z,100359.48
2022-09-07T10:24:44.079Z,100349.63
2022-09-07T10:29:47.420Z,100349.23
2022-09-07T10:35:12.681Z,100350.70
2022-09-07T10:40:28.732Z,100344.41
2022-09-07T10:45:52.207Z,100340.11
2022-09-07T10:51:03.131Z,100336.36
2022-09-07T10:56:31.011Z,100335.06
2022-09-07T11:01:59.946Z,100336.52
2022-09-07T11:07:16.457Z,100333.55
2022-09-07T11:12:30.896Z,100334.10
2022-09-07T11:17:53.219Z,100322.75
2022-09-07T11:23:11.169Z,100318.59
2022-09-07T11:28:20.449Z,100320.45
2022-09-07T11:33:31.739Z,100322.52
2022-09-07T11:38:39.426Z,100317.45
2022-09-07T11:43:55.345Z,100304.22
2022-09-07T11:49:04.377Z,100303.52
2022-09-07T11:54:27.495Z,100298.52
2022-09-07T12:00:03.806Z,100290.14
2022-09-07T12:05:25.108Z,100281.91
2022-09-07T12:10:43.469Z,100286.97
2022-09-07T12:16:05.839Z,100282.02
2022-09-07T12:21:42.869Z,100273.53
2022-09-07T12:26:50.229Z,100273.90
2022-09-07T12:31:58.764Z,100263.13
2022-09-07T12:37:39.146Z,100266.36
2022-09-07T12:42:42.515Z,100253.29
2022-09-07T12:47:59.279Z,100252.63
2022-09-07T12:53:17.803Z,100248.95
2022-09-07T12:58:47.709Z,100240.44
2022-09-07T13:04:08.888Z,100239.55
2022-09-07T13:09:38.595Z,100240.26
2022-09-07T13:14:43.793Z,100224.97
2022-09-07T13:19:47.143Z,100217.66
2022-09-07T13:24:57.585Z,100214.27
2022-09-07T13:30:16.810Z,100208.55
2022-09-07T13:35:23.339Z,100205.95
2022-09-07T13:40:29.315Z,100204.55
2022-09-07T13:45:51.181Z,100198.39
2022-09-07T13:51:07.512Z,100194.46
2022-09-07T13:56:13.927Z,100188.30
2022-09-07T14:01:22.817Z,100189.44
2022-09-07T14:06:33.657Z,100192.20
2022-09-07T14:11:46.551Z,100191.80
2022-09-07T14:17:00.501Z,100188.67
2022-09-07T14:22:38.153Z,100176.30
2022-09-07T14:27:46.863Z,100175.41
2022-09-07T14:33:01.053Z,100175.46
2022-09-07T14:39:04.111Z,100167.35
2022-09-07T14:43:58.780Z,100163.70
2022-09-07T14:49:05.876Z,100162.28
2022-09-07T14:54:30.977Z,100156.56
2022-09-07T14:59:55.801Z,100150.91
2022-09-07T15:05:26.183Z,100145.72
2022-09-07T15:10:35.896Z,100139.59
2022-09-07T15:15:41.621Z,100138.23
2022-09-07T15:20:46.454Z,100137.16
2022-09-07T15:25:53.617Z,100136.96
2022-09-07T15:36:20.927Z,100131.20
2022-09-07T15:41:24.719Z,100123.90
2022-09-07T15:46:28.493Z,100115.50
2022-09-07T16:13:11.119Z,100119.89
2022-09-07T16:18:18.751Z,100117.73
2022-09-07T16:23:29.188Z,100115.03
2022-09-07T16:28:40.039Z,100110.33
2022-09-07T16:33:45.674Z,100099.98
2022-09-07T16:38:51.986Z,100099.81
2022-09-07T16:43:56.162Z,100090.96
2022-09-07T16:49:12.494Z,100092.58
2022-09-07T16:54:16.082Z,100086.98
2022-09-07T16:59:21.840Z,100079.42
2022-09-07T17:04:25.097Z,100079.16
2022-09-07T17:09:29.212Z,100083.14
2022-09-07T17:14:34.474Z,100078.35
2022-09-07T17:19:38.190Z,100082.75
2022-09-07T17:24:41.717Z,100088.80
2022-09-07T17:29:53.729Z,100093.84
2022-09-07T17:35:00.757Z,100097.69
2022-09-07T17:40:06.023Z,100103.15
2022-09-07T17:45:19.040Z,100098.86
2022-09-07T17:50:23.947Z,100106.65
2022-09-07T17:55:27.373Z,100106.00
2022-09-07T18:00:30.667Z,100105.99
2022-09-07T18:05:38.146Z,100110.62
2022-09-07T18:16:19.153Z,100128.58
2022-09-07T18:21:31.922Z,100123.41
2022-09-07T18:27:01.754Z,100124.50
2022-09-07T18:32:25.500Z,100120.92
2022-09-07T18:37:47.604Z,100117.77
2022-09-07T18:42:52.910Z,100119.24
2022-09-07T18:47:56.239Z,100124.20
2022-09-07T18:53:10.562Z,100114.52
2022-09-07T18:58:19.722Z,100116.77
2022-09-07T19:03:23.016Z,100128.33
2022-09-07T19:08:30.627Z,100124.55
2022-09-07T19:13:34.525Z,100118.00
2022-09-07T19:18:51.087Z,100108.88
2022-09-07T19:23:59.781Z,100103.92
2022-09-07T19:29:12.772Z,100102.05
2022-09-07T19:34:16.919Z,100097.98
2022-09-07T19:39:32.860Z,100091.12
2022-09-07T19:44:40.610Z,100083.88
2022-09-07T19:49:43.954Z,100081.69
2022-09-07T19:54:50.377Z,100072.96
2022-09-07T19:59:57.701Z,100071.73
2022-09-07T20:05:02.174Z,100068.00
2022-09-07T20:10:12.352Z,100065.75
2022-09-07T20:15:18.762Z,100068.42
2022-09-07T20:20:24.077Z,100070.38
2022-09-07T20:25:27.339Z,100072.17
2022-09-07T20:30:34.278Z,100065.77
2022-09-07T20:35:44.572Z,100070.46
2022-09-07T20:40:58.053Z,100062.70
2022-09-07T20:46:02.875Z,100060.92
2022-09-07T20:51:20.228Z,100058.03
2022-09-07T20:56:33.131Z,100058.39
2022-09-07T21:01:36.836Z,100058.02
2022-09-07T21:06:44.062Z,100058.72
2022-09-07T21:11:49.742Z,100056.52
2022-09-07T21:16:54.102Z,100060.14
2022-09-07T21:21:57.676Z,100055.10
2022-09-07T21:27:01.508Z,100063.44
2022-09-07T21:32:05.431Z,100063.10
2022-09-07T21:37:19.344Z,100062.30
2022-09-07T21:42:28.819Z,100065.48
2022-09-07T21:47:34.951Z,100067.80
2022-09-07T21:52:49.667Z,100083.56
2022-09-07T21:58:03.301Z,100083.82
2022-09-07T22:03:12.894Z,100083.81
2022-09-07T22:08:17.932Z,100083.88
2022-09-07T22:13:21.292Z,100087.83
2022-09-07T22:18:24.601Z,100077.41
2022-09-07T22:23:34.003Z,100071.98
2022-09-07T22:28:44.148Z,100062.65
2022-09-07T22:33:49.188Z,100062.19
2022-09-07T22:38:57.769Z,100056.44
2022-09-07T22:44:03.543Z,100051.69
2022-09-07T22:49:07.526Z,100043.94
2022-09-07T22:54:11.356Z,100037.50
2022-09-07T22:59:14.571Z,100034.43
2022-09-07T23:04:19.960Z,100028.11
2022-09-07T23:09:32.320Z,100018.05
2022-09-07T23:14:36.007Z,100009.80
2022-09-07T23:19:44.476Z,100013.10
2022-09-07T23:24:53.616Z,100004.30
2022-09-07T23:30:01.549Z,100000.33
2022-09-07T23:35:08.306Z,100003.55
2022-09-07T23:40:18.874Z,100002.90
2022-09-07T23:45:29.050Z,99991.48
2022-09-07T23:50:41.111Z,99983.98
2022-09-07T23:55:48.120Z,99982.38
